Fort Washington, Maryland
Current Conditions -  °F | °C
As of 6:52 AM on Sunday 23 Nov 2014 (Local Time) from KDCA Reporting Station
Broken Clouds Broken Clouds  
Wind Chill: 38°   Ceiling: 25000
Heat Index: 41°   Visibility: 10mi
Dew Point: 21°   Wind: 5mph
Humidity: 45%   Direction: 190°S
Pressure: 30.25"   Gusts: NA
Location:  38.74°N, 77°W
Report Text: KDCA 231152Z 19004KT 10SM FEW100 SCT150 BKN250 05/M06 A3025 RMK AO2 SLP242 T00501061 10078 20033 53009
Loading
Personal Weather Stations






























Interactive Weather Map New forecast layout! Learn more

10-Day Weather Forecast

Advertisements
Track Severe Weather on mobile